Time;durP1;ratioP1;P1;durP2;ratioP2;P2;SDS_P1;SDS_P2;PMS_P1;PMS_P2;Temp;Humidity;BMP_temperature;BMP_pressure;BME280_temperature;BME280_humidity;BME280_pressure;Samples;Min_cycle;Max_cycle;Signal;HPM_P1;HPM_P2
2023/01/28 00:02:20;;;;;;;;;;;2.80;99.90;;;;;;5036403;28;19917;-73
2023/01/28 00:04:46;;;;;;;;;;;2.80;99.90;;;;;;5053079;28;19916;-73
2023/01/28 00:07:11;;;;;;;;;;;2.70;99.90;;;;;;5052832;28;19931;-73
2023/01/28 00:09:38;;;;;;;;;;;2.70;99.90;;;;;;5036213;28;19916;-73
2023/01/28 00:12:04;;;;;;;;;;;2.70;99.90;;;;;;5052737;28;19956;-74
2023/01/28 00:14:29;;;;;;;;;;;2.70;99.90;;;;;;5036381;28;20054;-73
2023/01/28 00:16:55;;;;;;;;;;;2.70;99.90;;;;;;5037008;28;20381;-73
2023/01/28 00:19:20;;;;;;;;;;;2.70;99.90;;;;;;5035827;28;19924;-73
2023/01/28 00:21:46;;;;;;;;;;;2.70;99.90;;;;;;5052958;28;19964;-74
2023/01/28 00:24:11;;;;;;;;;;;2.70;99.90;;;;;;5052383;28;19962;-73
2023/01/28 00:26:37;;;;;;;;;;;2.70;99.90;;;;;;5053369;28;19917;-73
2023/01/28 00:29:02;;;;;;;;;;;2.70;99.90;;;;;;5053338;28;20395;-74
2023/01/28 00:31:28;;;;;;;;;;;2.70;99.90;;;;;;5052594;28;20292;-74
2023/01/28 00:33:54;;;;;;;;;;;2.70;99.90;;;;;;5035257;28;19952;-74
2023/01/28 00:36:21;;;;;;;;;;;2.70;99.90;;;;;;5035547;28;20288;-74
2023/01/28 00:38:50;;;;;;;;;;;2.70;99.90;;;;;;5035609;28;19924;-74
2023/01/28 00:41:17;;;;;;;;;;;2.80;99.90;;;;;;5036164;28;19920;-74
2023/01/28 00:43:43;;;;;;;;;;;2.70;99.90;;;;;;5035148;28;19924;-73
2023/01/28 00:46:10;;;;;;;;;;;2.80;99.90;;;;;;5051868;28;20281;-73
2023/01/28 00:48:36;;;;;;;;;;;2.80;99.90;;;;;;5036030;28;19920;-73
2023/01/28 00:51:02;;;;;;;;;;;2.70;99.90;;;;;;5051980;28;19916;-73
2023/01/28 00:53:28;;;;;;;;;;;2.70;99.90;;;;;;5051965;28;19924;-73
2023/01/28 00:55:54;;;;;;;;;;;2.70;99.90;;;;;;5052799;28;20274;-74
2023/01/28 00:58:19;;;;;;;;;;;2.70;99.90;;;;;;5035341;28;19967;-73
2023/01/28 01:00:45;;;;;;;;;;;2.70;99.90;;;;;;5052742;28;19917;-74
2023/01/28 01:03:10;;;;;;;;;;;2.70;99.90;;;;;;5051898;28;19923;-74
2023/01/28 01:05:36;;;;;;;;;;;2.80;99.90;;;;;;5052641;28;20427;-73
2023/01/28 01:08:02;;;;;;;;;;;2.80;99.90;;;;;;5036163;28;20431;-74
2023/01/28 01:10:27;;;;;;;;;;;2.80;99.90;;;;;;5051683;28;20347;-74
2023/01/28 01:12:53;;;;;;;;;;;2.70;99.90;;;;;;5051300;28;19967;-74
2023/01/28 01:15:19;;;;;;;;;;;2.70;99.90;;;;;;5052764;28;19921;-74
2023/01/28 01:17:46;;;;;;;;;;;2.70;99.90;;;;;;5051676;28;19924;-73
2023/01/28 01:20:13;;;;;;;;;;;2.60;99.90;;;;;;5052404;28;19924;-73
2023/01/28 01:22:38;;;;;;;;;;;2.60;99.90;;;;;;5051777;28;20035;-73
2023/01/28 01:25:04;;;;;;;;;;;2.60;99.90;;;;;;5033554;28;20003;-73
2023/01/28 01:27:30;;;;;;;;;;;2.60;99.90;;;;;;5050577;28;20445;-73
2023/01/28 01:29:57;;;;;;;;;;;2.60;99.90;;;;;;5052278;28;19940;-74
2023/01/28 01:32:24;;;;;;;;;;;2.60;99.90;;;;;;5051413;28;20373;-74
2023/01/28 01:34:49;;;;;;;;;;;2.70;99.90;;;;;;5035816;28;19927;-74
2023/01/28 01:37:15;;;;;;;;;;;2.70;99.90;;;;;;5050476;28;19917;-73
2023/01/28 01:39:40;;;;;;;;;;;2.70;99.90;;;;;;5052342;28;19916;-74
2023/01/28 01:42:09;;;;;;;;;;;2.70;99.90;;;;;;5051312;28;19964;-74
2023/01/28 01:44:55;;;;;;;;;;;2.60;99.90;;;;;;5052230;28;20005;-74
2023/01/28 01:47:44;;;;;;;;;;;2.50;99.90;;;;;;5051253;28;19923;-73
2023/01/28 01:50:15;;;;;;;;;;;2.50;99.90;;;;;;5030068;28;19917;-73
2023/01/28 01:52:41;;;;;;;;;;;2.60;99.90;;;;;;5050980;28;19924;-74
2023/01/28 01:55:09;;;;;;;;;;;2.60;99.90;;;;;;5051162;28;19920;-74
2023/01/28 01:57:35;;;;;;;;;;;2.60;99.90;;;;;;5036259;28;19920;-74
2023/01/28 02:00:05;;;;;;;;;;;2.60;99.90;;;;;;5056087;28;19971;-74
2023/01/28 02:02:40;;;;;;;;;;;2.60;99.90;;;;;;5038676;28;19921;-74
2023/01/28 02:05:07;;;;;;;;;;;2.60;99.90;;;;;;5039489;28;20017;-73
2023/01/28 02:07:33;;;;;;;;;;;2.70;99.90;;;;;;5039337;28;20391;-74
2023/01/28 02:09:58;;;;;;;;;;;2.70;99.90;;;;;;5039307;28;19964;-74
2023/01/28 02:12:27;;;;;;;;;;;2.70;99.90;;;;;;5038509;28;19963;-74
2023/01/28 02:14:55;;;;;;;;;;;2.70;99.90;;;;;;5055926;28;19921;-74
2023/01/28 02:17:21;;;;;;;;;;;2.70;99.90;;;;;;5044782;28;19921;-73
2023/01/28 02:19:49;;;;;;;;;;;2.60;99.90;;;;;;5055373;28;20262;-73
2023/01/28 02:22:34;;;;;;;;;;;2.60;99.90;;;;;;5037921;28;19920;-73
2023/01/28 02:25:18;;;;;;;;;;;2.50;99.90;;;;;;5054094;28;19948;-73
2023/01/28 02:27:55;;;;;;;;;;;2.60;99.90;;;;;;5039161;28;20023;-73
2023/01/28 02:30:24;;;;;;;;;;;2.60;99.90;;;;;;5055893;28;19916;-73
2023/01/28 02:32:57;;;;;;;;;;;2.50;99.90;;;;;;5037722;28;19923;-73
2023/01/28 02:35:30;;;;;;;;;;;2.70;99.90;;;;;;5053979;28;19921;-73
2023/01/28 02:38:08;;;;;;;;;;;2.70;99.90;;;;;;5055509;28;19970;-73
2023/01/28 02:41:00;;;;;;;;;;;2.70;99.90;;;;;;5055397;28;19917;-73
2023/01/28 02:43:34;;;;;;;;;;;2.50;99.90;;;;;;5054236;28;19916;-73
2023/01/28 02:48:46;;;;;;;;;;;2.50;99.90;;;;;;5035876;28;20375;-73
2023/01/28 02:51:22;;;;;;;;;;;2.50;99.90;;;;;;5031890;28;20027;-73
2023/01/28 02:53:54;;;;;;;;;;;2.60;99.90;;;;;;5046735;28;20270;-74
2023/01/28 02:56:45;;;;;;;;;;;2.60;99.90;;;;;;5037680;28;19962;-73
2023/01/28 02:59:29;;;;;;;;;;;2.50;99.90;;;;;;5038858;28;20285;-73
2023/01/28 03:02:07;;;;;;;;;;;2.60;99.90;;;;;;5054540;28;19932;-73
2023/01/28 03:04:48;;;;;;;;;;;2.60;99.90;;;;;;5054967;28;19916;-73
2023/01/28 03:07:15;;;;;;;;;;;2.60;99.90;;;;;;5037500;28;20393;-73
2023/01/28 03:09:42;;;;;;;;;;;2.60;99.90;;;;;;5054870;28;19917;-73
2023/01/28 03:37:50;;;;;;;;;;;2.60;99.90;;;;;;5053657;28;20266;-73
2023/01/28 03:40:17;;;;;;;;;;;2.60;99.90;;;;;;5054293;28;19916;-73
2023/01/28 03:42:43;;;;;;;;;;;2.60;99.90;;;;;;5053089;28;20028;-73
2023/01/28 03:45:08;;;;;;;;;;;2.60;99.90;;;;;;5054151;28;19959;-73
2023/01/28 03:47:34;;;;;;;;;;;2.50;99.90;;;;;;5036842;28;20400;-73
2023/01/28 03:49:59;;;;;;;;;;;2.50;99.90;;;;;;5054411;28;20007;-74
2023/01/28 03:52:29;;;;;;;;;;;2.50;99.90;;;;;;5043792;28;19917;-73
2023/01/28 03:54:55;;;;;;;;;;;2.60;99.90;;;;;;5017828;28;20328;-74
2023/01/28 03:57:22;;;;;;;;;;;2.50;99.90;;;;;;5040178;28;19970;-73
2023/01/28 03:59:48;;;;;;;;;;;2.50;99.90;;;;;;5037269;28;19920;-73
2023/01/28 04:02:14;;;;;;;;;;;2.50;99.90;;;;;;5052716;28;19917;-74
2023/01/28 04:04:41;;;;;;;;;;;2.60;99.90;;;;;;5054122;28;19916;-73
2023/01/28 04:07:07;;;;;;;;;;;2.50;99.90;;;;;;5036436;28;20007;-73
2023/01/28 04:09:36;;;;;;;;;;;2.50;99.90;;;;;;5054060;28;20066;-73
2023/01/28 04:12:02;;;;;;;;;;;2.60;99.90;;;;;;5052571;28;19999;-73
2023/01/28 04:14:28;;;;;;;;;;;2.60;99.90;;;;;;5053624;28;19929;-73
2023/01/28 04:16:53;;;;;;;;;;;2.60;99.90;;;;;;5036324;28;19921;-73
2023/01/28 04:19:19;;;;;;;;;;;2.50;99.90;;;;;;5052356;28;19924;-73
2023/01/28 04:21:45;;;;;;;;;;;2.50;99.90;;;;;;5051223;28;19936;-73
2023/01/28 04:24:10;;;;;;;;;;;2.60;99.90;;;;;;5036035;28;20374;-73
2023/01/28 04:26:36;;;;;;;;;;;2.60;99.90;;;;;;5052578;28;19917;-73
2023/01/28 04:29:02;;;;;;;;;;;2.60;99.90;;;;;;5053300;28;19917;-74
2023/01/28 04:31:27;;;;;;;;;;;2.60;99.90;;;;;;5052104;28;20380;-73
2023/01/28 04:33:53;;;;;;;;;;;2.70;99.90;;;;;;5053331;28;19928;-74
2023/01/28 04:36:18;;;;;;;;;;;2.70;99.90;;;;;;5053221;28;19916;-74
2023/01/28 04:38:44;;;;;;;;;;;2.60;99.90;;;;;;5051928;28;20012;-73
2023/01/28 04:41:09;;;;;;;;;;;2.60;99.90;;;;;;5053445;28;19916;-74
2023/01/28 04:43:35;;;;;;;;;;;2.60;99.90;;;;;;5051935;28;19917;-74
2023/01/28 04:46:00;;;;;;;;;;;2.60;99.90;;;;;;5035567;28;19917;-73
2023/01/28 04:48:26;;;;;;;;;;;2.60;99.90;;;;;;5052964;28;19920;-74
2023/01/28 04:50:51;;;;;;;;;;;2.60;99.90;;;;;;5052983;28;20280;-74
2023/01/28 04:53:17;;;;;;;;;;;2.60;99.90;;;;;;5050884;28;20012;-73
2023/01/28 04:55:43;;;;;;;;;;;2.50;99.90;;;;;;5052835;28;19916;-73
2023/01/28 04:58:09;;;;;;;;;;;2.60;99.90;;;;;;5051683;28;20483;-73
2023/01/28 05:00:34;;;;;;;;;;;2.50;99.90;;;;;;5035510;28;19995;-74
2023/01/28 05:03:00;;;;;;;;;;;2.60;99.90;;;;;;5051913;28;19917;-74
2023/01/28 05:05:25;;;;;;;;;;;2.50;99.90;;;;;;5052695;28;19975;-73
2023/01/28 05:07:51;;;;;;;;;;;2.40;99.90;;;;;;5035678;28;20073;-74
2023/01/28 05:10:18;;;;;;;;;;;2.40;99.90;;;;;;5051488;28;19921;-74
2023/01/28 05:12:44;;;;;;;;;;;2.30;99.90;;;;;;5049929;28;19916;-74
2023/01/28 05:15:09;;;;;;;;;;;2.30;99.90;;;;;;5035374;28;19967;-73
2023/01/28 05:17:35;;;;;;;;;;;2.40;99.90;;;;;;5034091;28;19923;-73
2023/01/28 05:20:00;;;;;;;;;;;2.40;99.90;;;;;;5051591;28;20003;-73
2023/01/28 05:22:26;;;;;;;;;;;2.40;99.90;;;;;;5050501;28;19921;-74
2023/01/28 05:24:51;;;;;;;;;;;2.40;99.90;;;;;;5036125;28;19916;-73
2023/01/28 05:27:17;;;;;;;;;;;2.40;99.90;;;;;;5049700;28;19947;-73
2023/01/28 05:29:42;;;;;;;;;;;2.40;99.90;;;;;;5035866;28;19939;-74
2023/01/28 05:32:08;;;;;;;;;;;2.50;99.90;;;;;;5032780;28;20443;-74
2023/01/28 05:34:33;;;;;;;;;;;2.50;99.90;;;;;;5035679;28;19973;-74
2023/01/28 05:36:59;;;;;;;;;;;2.50;99.90;;;;;;5034172;28;19916;-74
2023/01/28 05:39:24;;;;;;;;;;;2.50;99.90;;;;;;5052261;28;20423;-74
2023/01/28 05:41:50;;;;;;;;;;;2.50;99.90;;;;;;5048873;28;19917;-74
2023/01/28 05:44:15;;;;;;;;;;;2.40;99.90;;;;;;5051388;28;19917;-73
2023/01/28 05:46:44;;;;;;;;;;;2.30;99.90;;;;;;5034744;28;19917;-74
2023/01/28 05:49:12;;;;;;;;;;;2.30;99.90;;;;;;5051276;28;19916;-74
2023/01/28 05:51:38;;;;;;;;;;;2.20;99.90;;;;;;5034711;28;19928;-73
2023/01/28 05:54:04;;;;;;;;;;;2.20;99.90;;;;;;5050223;28;19959;-73
2023/01/28 05:56:29;;;;;;;;;;;2.30;99.90;;;;;;5051634;28;20361;-73
2023/01/28 05:58:55;;;;;;;;;;;2.30;99.90;;;;;;5051043;28;19924;-74
2023/01/28 06:01:20;;;;;;;;;;;2.50;99.90;;;;;;5035491;28;19924;-74
2023/01/28 06:03:46;;;;;;;;;;;2.60;99.90;;;;;;5033810;28;19967;-74
2023/01/28 06:06:11;;;;;;;;;;;2.50;99.90;;;;;;5048790;28;19975;-74
2023/01/28 06:08:37;;;;;;;;;;;2.40;99.90;;;;;;5068008;28;20024;-74
2023/01/28 06:11:02;;;;;;;;;;;2.40;99.90;;;;;;5051061;28;20373;-74
2023/01/28 06:13:28;;;;;;;;;;;2.30;99.90;;;;;;5068101;28;19947;-74
2023/01/28 06:15:53;;;;;;;;;;;2.40;99.90;;;;;;5034515;28;19936;-74
2023/01/28 06:18:19;;;;;;;;;;;2.40;99.90;;;;;;5035578;28;19921;-74
2023/01/28 06:20:44;;;;;;;;;;;2.30;99.90;;;;;;5050997;28;20399;-76
2023/01/28 06:23:10;;;;;;;;;;;2.20;99.90;;;;;;5048806;28;19920;-74
2023/01/28 06:25:35;;;;;;;;;;;2.20;99.90;;;;;;5052126;28;20364;-73
2023/01/28 06:28:01;;;;;;;;;;;2.20;99.90;;;;;;5067727;28;19923;-74
2023/01/28 06:30:26;;;;;;;;;;;2.20;99.90;;;;;;5052058;28;20325;-73
2023/01/28 06:32:55;;;;;;;;;;;2.20;99.90;;;;;;5049826;28;19917;-74
2023/01/28 06:35:21;;;;;;;;;;;2.10;99.90;;;;;;5034569;28;19921;-73
2023/01/28 06:37:46;;;;;;;;;;;2.20;99.90;;;;;;5050719;28;19970;-73
2023/01/28 06:40:12;;;;;;;;;;;2.10;99.90;;;;;;5033954;28;19917;-74
2023/01/28 06:42:37;;;;;;;;;;;2.20;99.90;;;;;;5049756;28;19917;-74
2023/01/28 06:45:03;;;;;;;;;;;2.20;99.90;;;;;;5038890;28;19917;-73
2023/01/28 06:47:28;;;;;;;;;;;2.30;99.90;;;;;;5071102;28;20444;-74
2023/01/28 06:49:54;;;;;;;;;;;2.40;99.90;;;;;;5054446;28;19917;-76
2023/01/28 06:52:19;;;;;;;;;;;2.50;99.90;;;;;;5052151;28;20327;-74
2023/01/28 06:54:45;;;;;;;;;;;2.50;99.90;;;;;;5038468;28;19972;-73
2023/01/28 06:57:10;;;;;;;;;;;2.50;99.90;;;;;;5071050;28;20018;-73
2023/01/28 06:59:36;;;;;;;;;;;2.40;99.90;;;;;;5054317;28;19970;-73
2023/01/28 07:02:01;;;;;;;;;;;2.40;99.90;;;;;;5054531;28;20329;-73
2023/01/28 07:04:27;;;;;;;;;;;2.30;99.90;;;;;;5037620;28;20037;-74
2023/01/28 07:06:52;;;;;;;;;;;2.20;99.90;;;;;;5052850;28;19931;-74
2023/01/28 07:09:18;;;;;;;;;;;2.20;99.90;;;;;;5037358;28;19921;-73
2023/01/28 07:11:43;;;;;;;;;;;2.20;99.90;;;;;;5051810;28;19939;-73
2023/01/28 07:14:08;;;;;;;;;;;2.20;99.90;;;;;;5054375;28;19921;-73
2023/01/28 07:16:34;;;;;;;;;;;2.30;99.90;;;;;;5036550;28;19923;-74
2023/01/28 07:18:59;;;;;;;;;;;2.30;99.90;;;;;;5036853;28;20404;-74
2023/01/28 07:21:25;;;;;;;;;;;2.20;99.90;;;;;;5047754;28;20012;-74
2023/01/28 07:23:50;;;;;;;;;;;2.20;99.90;;;;;;5046737;28;19924;-74
2023/01/28 07:26:16;;;;;;;;;;;2.20;99.90;;;;;;5053824;28;19971;-74
2023/01/28 07:28:42;;;;;;;;;;;2.20;99.90;;;;;;5053738;28;19971;-74
2023/01/28 07:31:07;;;;;;;;;;;2.20;99.90;;;;;;5053633;28;19931;-74
2023/01/28 07:33:33;;;;;;;;;;;2.30;99.90;;;;;;5052967;28;19925;-75
2023/01/28 07:35:58;;;;;;;;;;;2.40;99.90;;;;;;5053369;28;19969;-74
2023/01/28 07:38:23;;;;;;;;;;;2.40;99.90;;;;;;5052019;28;20384;-74
2023/01/28 07:40:49;;;;;;;;;;;2.30;99.90;;;;;;5037671;28;19917;-74
2023/01/28 07:43:15;;;;;;;;;;;2.30;99.90;;;;;;5035513;28;19917;-75
2023/01/28 07:45:40;;;;;;;;;;;2.30;99.90;;;;;;5050906;28;19917;-75
2023/01/28 07:48:06;;;;;;;;;;;2.30;99.90;;;;;;5036904;28;19923;-74
2023/01/28 07:50:33;;;;;;;;;;;2.20;99.90;;;;;;5054060;28;19920;-74
2023/01/28 07:53:01;;;;;;;;;;;2.20;99.90;;;;;;5051257;28;19935;-75
2023/01/28 07:55:26;;;;;;;;;;;2.20;99.90;;;;;;5053492;28;20003;-74
2023/01/28 07:57:52;;;;;;;;;;;2.20;99.90;;;;;;5036699;28;20411;-74
2023/01/28 08:00:19;;;;;;;;;;;2.10;99.90;;;;;;5062212;28;20344;-75
2023/01/28 08:02:46;;;;;;;;;;;2.10;99.90;;;;;;5038368;28;20403;-75
2023/01/28 08:05:19;;;;;;;;;;;2.10;99.90;;;;;;5053826;28;19917;-70
2023/01/28 08:07:44;;;;;;;;;;;2.10;99.90;;;;;;5037562;28;20350;-70
2023/01/28 08:10:11;;;;;;;;;;;2.10;99.90;;;;;;5037371;28;19963;-70
2023/01/28 08:12:37;;;;;;;;;;;2.30;99.90;;;;;;5053679;28;19956;-74
2023/01/28 08:15:04;;;;;;;;;;;2.30;99.90;;;;;;5053615;28;19932;-74
2023/01/28 08:17:30;;;;;;;;;;;2.30;99.90;;;;;;5063320;28;20381;-74
2023/01/28 08:19:55;;;;;;;;;;;2.30;99.90;;;;;;5056682;28;19916;-74
2023/01/28 08:22:25;;;;;;;;;;;2.20;99.90;;;;;;5057215;28;19920;-74
2023/01/28 08:24:50;;;;;;;;;;;2.20;99.90;;;;;;5038194;28;19916;-74
2023/01/28 08:27:16;;;;;;;;;;;2.20;99.90;;;;;;5053764;28;19916;-74
2023/01/28 08:29:42;;;;;;;;;;;2.00;99.90;;;;;;5036812;28;19963;-74
2023/01/28 08:32:08;;;;;;;;;;;1.90;99.90;;;;;;5036728;28;20011;-74
2023/01/28 08:34:34;;;;;;;;;;;1.80;99.90;;;;;;5069963;28;20428;-74
2023/01/28 08:36:59;;;;;;;;;;;1.80;99.90;;;;;;5053247;28;20003;-74
2023/01/28 08:39:25;;;;;;;;;;;1.80;99.90;;;;;;5053437;28;19959;-74
2023/01/28 08:41:50;;;;;;;;;;;1.80;99.90;;;;;;5053105;28;20376;-74
2023/01/28 08:44:15;;;;;;;;;;;1.80;99.90;;;;;;5036367;28;19932;-74
2023/01/28 08:46:41;;;;;;;;;;;1.80;99.90;;;;;;5052243;28;20021;-74
2023/01/28 08:49:06;;;;;;;;;;;1.70;99.90;;;;;;5050582;28;19920;-74
2023/01/28 08:51:32;;;;;;;;;;;1.70;99.90;;;;;;5050668;28;20315;-74
2023/01/28 08:53:57;;;;;;;;;;;1.70;99.90;;;;;;5050661;28;20278;-74
2023/01/28 08:56:23;;;;;;;;;;;1.70;99.90;;;;;;5069982;28;19920;-75
2023/01/28 08:58:48;;;;;;;;;;;1.80;99.90;;;;;;5052868;28;19917;-73
2023/01/28 09:01:14;;;;;;;;;;;1.80;99.90;;;;;;5052757;28;19916;-74
2023/01/28 09:03:39;;;;;;;;;;;1.90;99.90;;;;;;5036227;28;20019;-74
2023/01/28 09:06:05;;;;;;;;;;;2.00;99.90;;;;;;5036234;28;19917;-73
2023/01/28 09:08:30;;;;;;;;;;;2.00;99.90;;;;;;5053016;28;19939;-74
2023/01/28 09:10:56;;;;;;;;;;;2.10;99.90;;;;;;5069464;28;19970;-74
2023/01/28 09:13:22;;;;;;;;;;;2.10;99.90;;;;;;5036348;28;20385;-74
2023/01/28 09:15:48;;;;;;;;;;;2.00;99.90;;;;;;5069566;28;19964;-72
2023/01/28 09:18:13;;;;;;;;;;;2.10;99.90;;;;;;5052556;28;19916;-72
2023/01/28 09:20:39;;;;;;;;;;;2.10;99.90;;;;;;5052306;28;20004;-72
2023/01/28 09:23:05;;;;;;;;;;;2.10;99.90;;;;;;5035966;28;20391;-73
2023/01/28 09:25:31;;;;;;;;;;;2.10;99.90;;;;;;5034130;28;19943;-72
2023/01/28 09:27:57;;;;;;;;;;;2.30;99.90;;;;;;5052461;28;19917;-73
2023/01/28 09:30:22;;;;;;;;;;;2.40;99.90;;;;;;5052627;28;20010;-73
2023/01/28 09:32:51;;;;;;;;;;;2.30;99.90;;;;;;5035765;28;19916;-73
2023/01/28 09:35:18;;;;;;;;;;;2.30;99.90;;;;;;5035681;28;19987;-73
2023/01/28 09:37:44;;;;;;;;;;;2.40;99.90;;;;;;5052384;28;19916;-73
2023/01/28 09:40:32;;;;;;;;;;;2.40;99.90;;;;;;5052344;28;19923;-73
2023/01/28 09:43:02;;;;;;;;;;;2.50;99.90;;;;;;5041805;28;20401;-73
2023/01/28 09:45:37;;;;;;;;;;;2.50;99.90;;;;;;5052190;28;19921;-74
2023/01/28 09:48:03;;;;;;;;;;;2.60;99.90;;;;;;5035698;28;19927;-73
2023/01/28 09:50:29;;;;;;;;;;;2.70;99.90;;;;;;5035701;28;19921;-73
2023/01/28 09:52:56;;;;;;;;;;;2.80;99.90;;;;;;5034874;28;19941;-73
2023/01/28 09:55:48;;;;;;;;;;;2.80;99.90;;;;;;5016111;28;19943;-73
2023/01/28 09:58:16;;;;;;;;;;;2.80;99.90;;;;;;5029437;28;19917;-73
2023/01/28 10:00:45;;;;;;;;;;;3.00;99.90;;;;;;5015682;28;19917;-73
2023/01/28 10:03:26;;;;;;;;;;;3.20;99.90;;;;;;5032147;28;19917;-73
2023/01/28 10:05:52;;;;;;;;;;;3.30;99.90;;;;;;5032159;28;19917;-73
2023/01/28 10:08:26;;;;;;;;;;;3.50;99.90;;;;;;5015972;28;19967;-73
2023/01/28 10:11:07;;;;;;;;;;;3.70;99.90;;;;;;5032043;28;19924;-73
2023/01/28 10:13:47;;;;;;;;;;;3.70;99.90;;;;;;5015669;28;19921;-73
2023/01/28 10:16:12;;;;;;;;;;;3.90;99.90;;;;;;5032388;28;20042;-73
2023/01/28 10:18:47;;;;;;;;;;;4.00;99.90;;;;;;5033414;28;19917;-73
2023/01/28 10:21:33;;;;;;;;;;;3.90;99.90;;;;;;5035886;28;20024;-73
2023/01/28 10:24:02;;;;;;;;;;;4.10;99.90;;;;;;5027221;28;19916;-73
2023/01/28 10:26:41;;;;;;;;;;;4.40;99.90;;;;;;5054358;28;20054;-73
2023/01/28 10:29:12;;;;;;;;;;;4.20;99.90;;;;;;5055705;28;19917;-73
2023/01/28 10:31:40;;;;;;;;;;;4.30;99.90;;;;;;5055721;28;20336;-73
2023/01/28 10:34:05;;;;;;;;;;;4.20;99.90;;;;;;5039082;28;19921;-74
2023/01/28 10:36:31;;;;;;;;;;;4.40;99.90;;;;;;5038942;28;19916;-73
2023/01/28 10:38:57;;;;;;;;;;;4.30;99.90;;;;;;5055621;28;19931;-73
2023/01/28 10:41:24;;;;;;;;;;;4.40;99.90;;;;;;5038744;28;20373;-73
2023/01/28 10:43:50;;;;;;;;;;;4.40;99.90;;;;;;5055778;28;20329;-73
2023/01/28 10:46:21;;;;;;;;;;;4.30;99.90;;;;;;5055726;28;20083;-73
2023/01/28 10:48:52;;;;;;;;;;;4.30;99.90;;;;;;5039078;28;20419;-73
2023/01/28 10:51:28;;;;;;;;;;;4.20;99.90;;;;;;5038814;28;19967;-73
2023/01/28 10:53:53;;;;;;;;;;;4.40;99.90;;;;;;5037707;28;20011;-73
2023/01/28 10:56:24;;;;;;;;;;;4.40;99.90;;;;;;5054586;28;20380;-74
2023/01/28 10:58:57;;;;;;;;;;;4.40;99.90;;;;;;5052071;28;20019;-72
2023/01/28 11:01:22;;;;;;;;;;;4.50;99.90;;;;;;5055156;28;19917;-73
2023/01/28 11:03:55;;;;;;;;;;;4.50;99.90;;;;;;5055101;28;19991;-73
2023/01/28 11:06:25;;;;;;;;;;;4.50;99.90;;;;;;5055334;28;19940;-73
2023/01/28 11:08:50;;;;;;;;;;;4.40;99.90;;;;;;5055274;28;20007;-73
2023/01/28 11:11:22;;;;;;;;;;;4.40;99.90;;;;;;5055107;28;19920;-73
2023/01/28 11:13:48;;;;;;;;;;;4.40;99.90;;;;;;5055150;28;20012;-73
2023/01/28 11:16:17;;;;;;;;;;;4.40;99.90;;;;;;5054822;28;19956;-73
2023/01/28 11:19:04;;;;;;;;;;;4.40;99.90;;;;;;5054593;28;19946;-73
2023/01/28 11:21:30;;;;;;;;;;;4.60;99.90;;;;;;5054994;28;19998;-72
2023/01/28 11:23:59;;;;;;;;;;;4.70;99.90;;;;;;5052888;28;20254;-73
2023/01/28 11:26:27;;;;;;;;;;;4.80;99.90;;;;;;5037415;28;19916;-73
2023/01/28 11:28:52;;;;;;;;;;;5.10;99.90;;;;;;5054801;28;19939;-73
2023/01/28 11:31:20;;;;;;;;;;;5.30;99.90;;;;;;5036762;28;19916;-73
2023/01/28 11:33:56;;;;;;;;;;;5.10;99.90;;;;;;5053990;28;19971;-73
2023/01/28 11:36:23;;;;;;;;;;;4.90;99.90;;;;;;5034800;28;20074;-73
2023/01/28 11:38:51;;;;;;;;;;;4.90;99.90;;;;;;5034793;28;20289;-73
2023/01/28 11:41:17;;;;;;;;;;;4.90;99.90;;;;;;5034494;28;19917;-73
2023/01/28 11:43:46;;;;;;;;;;;4.90;99.90;;;;;;5034337;28;20060;-73
2023/01/28 11:46:11;;;;;;;;;;;4.90;99.90;;;;;;5022113;28;19924;-73
2023/01/28 11:48:37;;;;;;;;;;;4.80;99.90;;;;;;5037225;28;20390;-73
2023/01/28 11:51:03;;;;;;;;;;;4.90;99.90;;;;;;5054202;28;19931;-73
2023/01/28 11:53:44;;;;;;;;;;;4.90;99.90;;;;;;5054082;28;19921;-73
2023/01/28 11:56:28;;;;;;;;;;;4.80;99.90;;;;;;5036619;28;19917;-73
2023/01/28 11:59:08;;;;;;;;;;;4.80;99.90;;;;;;5053945;28;19917;-73
2023/01/28 12:01:34;;;;;;;;;;;4.80;99.90;;;;;;5037405;28;19917;-73
2023/01/28 12:04:14;;;;;;;;;;;4.80;99.90;;;;;;5037232;28;20278;-73
2023/01/28 12:06:55;;;;;;;;;;;4.80;99.90;;;;;;5037281;28;19924;-73
2023/01/28 12:09:32;;;;;;;;;;;4.80;99.90;;;;;;5053859;28;20012;-73
2023/01/28 12:12:13;;;;;;;;;;;4.90;99.90;;;;;;5053737;28;19925;-73
2023/01/28 12:14:53;;;;;;;;;;;5.10;99.90;;;;;;5037049;28;20388;-73
2023/01/28 12:17:41;;;;;;;;;;;5.10;99.90;;;;;;5037027;28;19971;-73
2023/01/28 12:20:07;;;;;;;;;;;5.10;99.90;;;;;;5048816;28;19971;-73
2023/01/28 12:22:42;;;;;;;;;;;5.20;99.90;;;;;;5043385;28;20331;-73
2023/01/28 12:25:19;;;;;;;;;;;5.00;99.90;;;;;;5050465;28;19921;-73
2023/01/28 12:27:56;;;;;;;;;;;5.00;99.90;;;;;;5053465;28;19917;-73
2023/01/28 12:30:33;;;;;;;;;;;5.00;99.90;;;;;;5052481;28;19940;-73
2023/01/28 12:33:27;;;;;;;;;;;4.90;99.90;;;;;;5035001;28;20294;-73
2023/01/28 12:36:06;;;;;;;;;;;4.90;99.90;;;;;;5033406;28;20437;-73
2023/01/28 12:38:50;;;;;;;;;;;4.80;99.90;;;;;;5016864;28;19924;-73
2023/01/28 12:41:17;;;;;;;;;;;4.80;99.90;;;;;;5031121;28;19917;-73
2023/01/28 12:43:50;;;;;;;;;;;4.70;99.90;;;;;;5052199;28;19923;-73
2023/01/28 12:46:27;;;;;;;;;;;4.70;99.90;;;;;;5067444;28;19916;-73
2023/01/28 12:49:13;;;;;;;;;;;4.80;99.90;;;;;;5051963;28;19917;-73
2023/01/28 12:51:45;;;;;;;;;;;4.90;99.90;;;;;;5006373;28;19916;-73
2023/01/28 12:54:10;;;;;;;;;;;4.80;99.90;;;;;;5053277;28;19921;-73
2023/01/28 12:56:39;;;;;;;;;;;4.90;99.90;;;;;;5034809;28;20387;-73
2023/01/28 12:59:10;;;;;;;;;;;5.00;99.90;;;;;;5052160;28;19917;-73
2023/01/28 13:01:41;;;;;;;;;;;4.90;99.90;;;;;;5035540;28;19916;-73
2023/01/28 13:04:27;;;;;;;;;;;5.00;99.90;;;;;;5036475;28;20266;-73
2023/01/28 13:06:58;;;;;;;;;;;5.10;99.90;;;;;;5034478;28;19999;-73
2023/01/28 13:09:25;;;;;;;;;;;5.20;99.90;;;;;;5050305;28;20487;-73
2023/01/28 13:11:51;;;;;;;;;;;5.20;99.90;;;;;;5052824;28;20285;-73
2023/01/28 13:14:19;;;;;;;;;;;5.40;99.90;;;;;;5052653;28;19920;-74
2023/01/28 13:16:44;;;;;;;;;;;5.30;99.90;;;;;;5035199;28;19917;-74
2023/01/28 13:19:16;;;;;;;;;;;5.10;99.90;;;;;;5051581;28;19987;-74
2023/01/28 13:21:41;;;;;;;;;;;5.10;99.90;;;;;;5048466;28;19966;-74
2023/01/28 13:24:13;;;;;;;;;;;5.20;99.90;;;;;;5050332;28;19920;-74
2023/01/28 13:26:38;;;;;;;;;;;5.10;99.90;;;;;;5051571;28;19959;-73
2023/01/28 13:29:15;;;;;;;;;;;5.20;99.90;;;;;;5051234;28;20415;-73
2023/01/28 13:31:42;;;;;;;;;;;5.20;99.90;;;;;;5050543;28;20023;-73
2023/01/28 13:34:13;;;;;;;;;;;5.20;99.90;;;;;;5033886;28;19925;-73
2023/01/28 13:36:44;;;;;;;;;;;5.20;99.90;;;;;;5052291;28;19923;-73
2023/01/28 13:39:12;;;;;;;;;;;5.40;99.90;;;;;;5050608;28;20432;-73
2023/01/28 13:41:41;;;;;;;;;;;5.30;99.90;;;;;;5050309;28;19920;-73
2023/01/28 13:44:20;;;;;;;;;;;5.30;99.90;;;;;;5031490;28;19942;-73
2023/01/28 13:46:45;;;;;;;;;;;5.50;99.90;;;;;;5025305;28;19971;-73
2023/01/28 13:49:31;;;;;;;;;;;5.40;99.90;;;;;;5050858;28;19917;-73
2023/01/28 13:52:07;;;;;;;;;;;5.30;99.90;;;;;;5046670;28;19917;-73
2023/01/28 13:54:34;;;;;;;;;;;5.20;99.90;;;;;;5053076;28;20292;-73
2023/01/28 13:57:00;;;;;;;;;;;5.20;99.90;;;;;;5055955;28;20004;-73
2023/01/28 13:59:34;;;;;;;;;;;5.20;99.90;;;;;;5038484;28;20016;-73
2023/01/28 14:02:19;;;;;;;;;;;5.20;99.90;;;;;;5062198;28;19959;-73
2023/01/28 14:04:51;;;;;;;;;;;5.30;99.90;;;;;;5061726;28;19917;-73
2023/01/28 14:07:37;;;;;;;;;;;5.40;99.90;;;;;;5054822;28;20357;-73
2023/01/28 14:10:09;;;;;;;;;;;5.30;99.90;;;;;;5046682;28;20011;-73
2023/01/28 14:12:49;;;;;;;;;;;5.20;99.90;;;;;;5038655;28;19970;-74
2023/01/28 14:15:24;;;;;;;;;;;5.10;99.90;;;;;;5053277;28;19921;-75
2023/01/28 14:17:50;;;;;;;;;;;5.10;99.90;;;;;;5055052;28;19927;-75
2023/01/28 14:20:22;;;;;;;;;;;5.00;99.90;;;;;;5051677;28;19959;-72
2023/01/28 14:22:48;;;;;;;;;;;5.10;99.90;;;;;;5055477;28;19928;-72
2023/01/28 14:25:15;;;;;;;;;;;5.00;99.90;;;;;;5048833;28;19935;-72
2023/01/28 14:27:44;;;;;;;;;;;5.10;99.90;;;;;;5052139;28;20406;-72
2023/01/28 14:30:29;;;;;;;;;;;5.10;99.90;;;;;;5033614;28;19924;-72
2023/01/28 14:32:54;;;;;;;;;;;5.00;99.90;;;;;;5053910;28;19916;-73
2023/01/28 14:35:27;;;;;;;;;;;5.00;99.90;;;;;;5037815;28;20423;-73
2023/01/28 14:37:53;;;;;;;;;;;5.00;99.90;;;;;;5053725;28;19923;-74
2023/01/28 14:40:19;;;;;;;;;;;5.00;99.90;;;;;;5054387;28;19916;-73
2023/01/28 14:42:46;;;;;;;;;;;5.00;99.90;;;;;;5038685;28;19923;-73
2023/01/28 14:45:24;;;;;;;;;;;5.00;99.90;;;;;;5054038;28;19924;-73
2023/01/28 14:47:59;;;;;;;;;;;5.00;99.90;;;;;;5037755;28;19921;-74
2023/01/28 14:50:24;;;;;;;;;;;5.10;99.90;;;;;;5037475;28;19916;-73
2023/01/28 14:52:55;;;;;;;;;;;5.00;99.90;;;;;;5052180;28;20039;-73
2023/01/28 14:55:29;;;;;;;;;;;5.00;99.90;;;;;;5054971;28;20293;-73
2023/01/28 14:57:57;;;;;;;;;;;4.90;99.90;;;;;;4941376;28;39502;-73
2023/01/28 15:00:24;;;;;;;;;;;4.90;99.90;;;;;;4987129;28;19932;-74
2023/01/28 15:05:27;;;;;;;;;;;4.90;99.90;;;;;;5045662;27;19924;-74
2023/01/28 15:07:54;;;;;;;;;;;4.90;99.90;;;;;;5051107;28;19925;-74
2023/01/28 15:10:20;;;;;;;;;;;4.80;99.90;;;;;;5033150;28;19920;-74
2023/01/28 15:12:48;;;;;;;;;;;4.80;99.90;;;;;;5050514;28;20023;-74